Anthony, Idaho
Current Conditions -  °F | °C
As of 4:04 PM on Saturday 20 Dec 2014 (Local Time) from KRXE Reporting Station
Overcast Overcast  
Wind Chill: 29°   Ceiling: 1200
Heat Index: 35°   Visibility: 10mi
Dew Point: 33°   Wind: 8mph
Humidity: 92%   Direction: 220°SW
Pressure: 29.98"   Gusts: NA
Location:  44.2887°N, 111.507°W
Report Text: KRXE 202304Z AUTO 22007KT 10SM BKN012 BKN018 OVC025 02/01 A2998 RMK AO2 T00170006
Loading
Personal Weather Stations






























Interactive Weather Map New forecast layout! Learn more

10-Day Weather Forecast

Advertisements
Track Severe Weather on mobile